createdAt,value
2019-04-06T00:00:39.715Z,3.55
2019-04-06T00:03:08.193Z,3.30
2019-04-06T00:05:36.769Z,3.35
2019-04-06T00:08:05.173Z,3.40
2019-04-06T00:10:33.846Z,3.50
2019-04-06T00:13:02.418Z,3.40
2019-04-06T00:15:30.819Z,3.80
2019-04-06T00:17:59.334Z,4.08
2019-04-06T00:20:27.801Z,3.30
2019-04-06T00:22:56.197Z,3.58
2019-04-06T00:25:24.650Z,3.30
2019-04-06T00:27:53.074Z,3.75
2019-04-06T00:30:21.489Z,3.40
2019-04-06T00:32:51.536Z,3.83
2019-04-06T00:35:20.026Z,3.55
2019-04-06T00:37:48.485Z,3.25
2019-04-06T00:40:16.941Z,3.60
2019-04-06T00:42:45.486Z,3.60
2019-04-06T00:45:14.006Z,3.95
2019-04-06T00:47:42.470Z,3.65
2019-04-06T00:50:11.011Z,3.90
2019-04-06T00:52:39.538Z,3.40
2019-04-06T00:55:07.967Z,3.87
2019-04-06T00:57:36.424Z,3.55
2019-04-06T01:00:06.721Z,2.90
2019-04-06T01:02:35.108Z,3.20
2019-04-06T01:05:05.937Z,3.50
2019-04-06T01:07:34.300Z,3.30
2019-04-06T01:10:03.059Z,3.40
2019-04-06T01:12:31.636Z,3.50
2019-04-06T01:15:00.088Z,3.15
2019-04-06T01:17:28.484Z,3.52
2019-04-06T01:19:57.010Z,3.42
2019-04-06T01:22:25.391Z,3.50
2019-04-06T01:24:53.816Z,3.40
2019-04-06T01:27:22.314Z,3.30
2019-04-06T01:29:50.713Z,3.05
2019-04-06T01:32:19.110Z,2.92
2019-04-06T01:34:47.529Z,3.12
2019-04-06T01:37:15.854Z,3.30
2019-04-06T01:39:44.213Z,3.40
2019-04-06T01:42:12.670Z,3.30
2019-04-06T01:44:41.111Z,3.58
2019-04-06T01:47:09.502Z,3.58
2019-04-06T01:49:38.150Z,3.30
2019-04-06T01:52:06.653Z,3.05
2019-04-06T01:54:36.657Z,3.45
2019-04-06T01:57:05.125Z,3.35
2019-04-06T01:59:33.486Z,2.98
2019-04-06T02:02:12.576Z,3.20
2019-04-06T02:04:41.002Z,3.52
2019-04-06T02:07:09.582Z,3.45
2019-04-06T02:09:37.977Z,3.98
2019-04-06T02:12:06.353Z,3.75
2019-04-06T02:14:34.783Z,4.05
2019-04-06T02:17:04.318Z,4.30
2019-04-06T02:19:32.691Z,3.60
2019-04-06T02:22:01.158Z,4.33
2019-04-06T02:24:29.689Z,4.80
2019-04-06T02:26:58.176Z,4.40
2019-04-06T02:29:26.646Z,4.28
2019-04-06T02:31:56.863Z,3.83
2019-04-06T02:34:43.135Z,4.00
2019-04-06T02:37:16.491Z,3.85
2019-04-06T02:40:02.627Z,4.20
2019-04-06T02:42:32.707Z,4.17
2019-04-06T02:45:01.176Z,4.08
2019-04-06T02:47:29.540Z,4.42
2019-04-06T02:49:57.966Z,4.03
2019-04-06T02:52:26.400Z,4.12
2019-04-06T02:54:54.887Z,4.30
2019-04-06T02:57:23.249Z,4.08
2019-04-06T02:59:51.753Z,4.67
2019-04-06T03:02:20.155Z,4.15
2019-04-06T03:04:48.543Z,4.25
2019-04-06T03:07:17.010Z,3.92
2019-04-06T03:09:45.466Z,4.17
2019-04-06T03:12:13.890Z,4.60
2019-04-06T03:14:44.572Z,4.00
2019-04-06T03:17:12.543Z,4.47
2019-04-06T03:19:41.053Z,4.20
2019-04-06T03:22:09.596Z,4.50
2019-04-06T03:24:38.048Z,4.60
2019-04-06T03:27:06.415Z,4.55
2019-04-06T03:29:34.936Z,5.00
2019-04-06T03:32:03.914Z,4.65
2019-04-06T03:34:32.634Z,4.50
2019-04-06T03:37:01.122Z,4.05
2019-04-06T03:39:29.553Z,5.05
2019-04-06T03:41:57.984Z,4.85
2019-04-06T03:44:26.274Z,4.80
2019-04-06T03:46:54.716Z,4.50
2019-04-06T03:49:23.241Z,4.60
2019-04-06T03:51:51.758Z,4.00
2019-04-06T03:54:20.137Z,3.90
2019-04-06T03:56:48.679Z,4.35
2019-04-06T03:59:17.124Z,4.72
2019-04-06T04:01:45.599Z,4.22
2019-04-06T04:04:14.096Z,4.20
2019-04-06T04:06:42.558Z,3.95
2019-04-06T04:09:10.743Z,3.92
2019-04-06T04:11:40.427Z,3.70
2019-04-06T04:14:08.930Z,3.85
2019-04-06T04:16:37.387Z,4.10
2019-04-06T04:19:08.635Z,4.08
2019-04-06T04:21:37.110Z,4.22
2019-04-06T04:24:05.546Z,3.90
2019-04-06T04:26:35.214Z,4.08
2019-04-06T04:29:03.718Z,4.10
2019-04-06T04:31:32.204Z,3.77
2019-04-06T04:34:00.576Z,4.40
2019-04-06T04:36:29.065Z,3.92
2019-04-06T04:38:57.631Z,4.25
2019-04-06T04:41:25.988Z,3.77
2019-04-06T04:43:54.487Z,3.87
2019-04-06T04:46:24.164Z,3.92
2019-04-06T04:48:52.725Z,3.77
2019-04-06T04:51:21.177Z,3.67
2019-04-06T04:53:49.629Z,3.70
2019-04-06T04:56:18.042Z,4.20
2019-04-06T04:58:47.397Z,3.85
2019-04-06T05:01:15.915Z,4.20
2019-04-06T05:03:44.402Z,4.20
2019-04-06T05:06:12.859Z,4.05
2019-04-06T05:08:41.438Z,4.10
2019-04-06T05:11:09.989Z,4.15
2019-04-06T05:13:38.448Z,3.70
2019-04-06T05:16:14.244Z,4.30
2019-04-06T05:18:43.015Z,3.90
2019-04-06T05:21:11.742Z,4.12
2019-04-06T05:23:59.709Z,3.90
2019-04-06T05:26:36.790Z,4.25
2019-04-06T05:28:58.232Z,3.75
2019-04-06T05:31:26.948Z,4.20
2019-04-06T05:33:55.428Z,4.00
2019-04-06T05:36:23.884Z,3.80
2019-04-06T05:38:52.401Z,3.65
2019-04-06T05:41:20.957Z,3.50
2019-04-06T05:43:49.336Z,4.10
2019-04-06T05:46:17.831Z,3.70
2019-04-06T05:48:46.450Z,3.72
2019-04-06T05:51:14.813Z,3.80
2019-04-06T05:53:43.204Z,3.95
2019-04-06T05:56:11.624Z,3.80
2019-04-06T05:58:41.258Z,3.75
2019-04-06T06:01:11.031Z,3.85
2019-04-06T06:03:41.098Z,4.40
2019-04-06T06:06:12.338Z,4.60
2019-04-06T06:08:40.082Z,4.55
2019-04-06T06:11:08.515Z,4.30
2019-04-06T06:13:39.303Z,4.12
2019-04-06T06:16:07.098Z,4.40
2019-04-06T06:18:35.567Z,4.62
2019-04-06T06:21:04.038Z,4.00
2019-04-06T06:23:32.481Z,5.03
2019-04-06T06:26:01.212Z,4.15
2019-04-06T06:28:30.029Z,4.62
2019-04-06T06:30:58.646Z,4.47
2019-04-06T06:33:27.125Z,4.72
2019-04-06T06:35:55.609Z,5.00
2019-04-06T06:38:24.078Z,10.78
2019-04-06T06:40:52.462Z,9.28
2019-04-06T06:43:21.248Z,13.18
2019-04-06T06:45:50.137Z,11.70
2019-04-06T06:48:18.603Z,13.60
2019-04-06T06:50:47.088Z,12.88
2019-04-06T06:53:15.609Z,15.32
2019-04-06T06:55:44.037Z,14.38
2019-04-06T06:58:12.342Z,16.48
2019-04-06T07:00:40.889Z,20.27
2019-04-06T07:03:09.344Z,21.15
2019-04-06T07:05:37.851Z,26.02
2019-04-06T07:08:06.456Z,23.42
2019-04-06T07:10:34.749Z,22.73
2019-04-06T07:13:03.063Z,23.10
2019-04-06T07:15:31.763Z,21.62
2019-04-06T07:18:00.261Z,25.57
2019-04-06T07:20:29.174Z,22.70
2019-04-06T07:22:57.749Z,24.43
2019-04-06T07:25:26.159Z,24.45
2019-04-06T07:27:54.733Z,23.40
2019-04-06T07:30:24.292Z,24.18
2019-04-06T07:32:55.231Z,23.87
2019-04-06T07:35:42.447Z,23.83
2019-04-06T07:38:10.964Z,24.35
2019-04-06T07:40:39.523Z,23.57
2019-04-06T07:43:07.984Z,23.55
2019-04-06T07:45:36.371Z,22.52
2019-04-06T07:48:04.868Z,21.82
2019-04-06T07:50:33.355Z,22.73
2019-04-06T07:53:01.929Z,23.92
2019-04-06T07:55:30.742Z,23.65
2019-04-06T07:57:59.112Z,19.73
2019-04-06T08:00:27.504Z,22.90
2019-04-06T08:02:55.958Z,23.30
2019-04-06T08:05:24.484Z,23.95
2019-04-06T08:07:54.078Z,23.60
2019-04-06T08:10:22.518Z,23.60
2019-04-06T08:12:50.904Z,26.45
2019-04-06T08:15:19.703Z,23.00
2019-04-06T08:17:48.504Z,29.07
2019-04-06T08:20:17.136Z,25.90
2019-04-06T08:22:45.758Z,25.82
2019-04-06T08:25:14.160Z,23.75
2019-04-06T08:27:42.621Z,28.73
2019-04-06T08:30:11.201Z,28.42
2019-04-06T08:32:39.638Z,29.67
2019-04-06T08:35:08.137Z,30.48
2019-04-06T08:37:36.681Z,28.17
2019-04-06T08:40:08.170Z,27.00
2019-04-06T08:42:36.651Z,29.50
2019-04-06T08:45:06.236Z,29.07
2019-04-06T08:47:34.596Z,30.62
2019-04-06T08:50:03.881Z,30.68
2019-04-06T08:52:32.389Z,26.40
2019-04-06T08:55:00.760Z,26.62
2019-04-06T08:57:29.323Z,28.47
2019-04-06T08:59:57.979Z,25.30
2019-04-06T09:02:28.430Z,24.35
2019-04-06T09:04:56.525Z,27.32
2019-04-06T09:07:24.994Z,25.17
2019-04-06T09:09:53.470Z,23.12
2019-04-06T09:12:22.147Z,23.80
2019-04-06T09:14:51.032Z,23.77
2019-04-06T09:17:19.775Z,21.35
2019-04-06T09:19:48.293Z,20.40
2019-04-06T09:22:16.796Z,19.73
2019-04-06T09:24:45.096Z,21.12
2019-04-06T09:27:13.570Z,19.57
2019-04-06T09:29:42.096Z,21.95
2019-04-06T09:32:10.490Z,21.60
2019-04-06T09:34:38.889Z,21.02
2019-04-06T09:37:07.334Z,20.85
2019-04-06T09:39:35.686Z,20.10
2019-04-06T09:42:04.427Z,19.98
2019-04-06T09:44:50.753Z,20.00
2019-04-06T09:49:52.645Z,18.62
2019-04-06T09:52:25.709Z,22.82
2019-04-06T09:54:58.768Z,22.73
2019-04-06T09:57:28.796Z,21.07
2019-04-06T09:59:58.841Z,21.87
2019-04-06T10:02:45.343Z,21.35
2019-04-06T10:05:33.580Z,22.17
2019-04-06T10:08:18.950Z,22.52
2019-04-06T10:11:05.675Z,21.40
2019-04-06T10:13:38.785Z,21.42
2019-04-06T10:16:08.759Z,22.48
2019-04-06T10:18:44.825Z,22.10
2019-04-06T10:21:14.914Z,18.67
2019-04-06T10:23:44.997Z,20.17
2019-04-06T10:26:15.054Z,23.47
2019-04-06T10:28:53.851Z,24.05
2019-04-06T10:31:40.320Z,25.68
2019-04-06T10:34:28.498Z,23.05
2019-04-06T10:37:14.653Z,23.73
2019-04-06T10:39:44.710Z,19.77
2019-04-06T10:42:17.766Z,23.40
2019-04-06T10:44:59.853Z,26.23
2019-04-06T10:47:46.603Z,22.60
2019-04-06T10:50:19.341Z,26.73
2019-04-06T10:52:52.427Z,23.65
2019-04-06T10:55:31.250Z,24.32
2019-04-06T10:58:01.623Z,20.88
2019-04-06T11:00:34.657Z,21.00
2019-04-06T11:03:04.777Z,23.50
2019-04-06T11:05:46.654Z,22.22
2019-04-06T11:08:52.461Z,21.30
2019-04-06T11:14:08.681Z,19.50
2019-04-06T11:16:55.111Z,18.20
2019-04-06T11:22:17.223Z,18.50
2019-04-06T11:24:47.586Z,18.92
2019-04-06T11:27:29.674Z,18.25
2019-04-06T11:30:16.451Z,16.10
2019-04-06T11:33:01.851Z,15.45
2019-04-06T11:35:43.690Z,13.53
2019-04-06T11:38:13.792Z,16.07
2019-04-06T11:40:59.118Z,16.95
2019-04-06T11:43:29.226Z,18.00
2019-04-06T11:46:05.255Z,17.07
2019-04-06T11:48:47.689Z,16.00
2019-04-06T11:51:24.027Z,18.02
2019-04-06T11:53:54.401Z,20.45
2019-04-06T11:56:33.903Z,24.60
2019-04-06T11:59:06.696Z,22.77
2019-04-06T12:01:48.650Z,23.35
2019-04-06T12:04:21.760Z,20.90
2019-04-06T12:07:10.176Z,21.73
2019-04-06T12:09:43.421Z,21.27
2019-04-06T12:12:19.603Z,22.70
2019-04-06T12:15:05.952Z,23.75
2019-04-06T12:17:36.001Z,24.98
2019-04-06T12:20:10.929Z,24.90
2019-04-06T12:22:51.222Z,24.20
2019-04-06T12:25:30.190Z,23.77
2019-04-06T12:28:16.703Z,22.50
2019-04-06T12:31:03.110Z,25.68
2019-04-06T12:33:33.223Z,24.85
2019-04-06T12:36:03.645Z,24.35
2019-04-06T12:38:50.272Z,20.25
2019-04-06T12:41:20.438Z,14.58
2019-04-06T12:44:08.657Z,12.78
2019-04-06T12:46:55.383Z,10.28
2019-04-06T12:49:42.141Z,9.00
2019-04-06T12:52:21.383Z,10.05
2019-04-06T12:55:00.538Z,9.78
2019-04-06T12:57:47.231Z,9.83
2019-04-06T13:00:23.749Z,7.80
2019-04-06T13:05:23.427Z,8.88
2019-04-06T13:08:10.021Z,8.00
2019-04-06T13:10:40.429Z,9.45
2019-04-06T13:13:19.489Z,9.85
2019-04-06T13:15:49.558Z,9.40
2019-04-06T13:18:19.628Z,9.70
2019-04-06T13:20:49.765Z,10.00
2019-04-06T13:23:25.425Z,9.88
2019-04-06T13:26:07.504Z,10.18
2019-04-06T13:28:40.386Z,10.28
2019-04-06T13:31:10.507Z,11.03
2019-04-06T13:33:40.546Z,11.57
2019-04-06T13:36:27.087Z,11.22
2019-04-06T13:39:00.008Z,10.48
2019-04-06T13:41:29.996Z,10.95
2019-04-06T13:44:16.798Z,12.50
2019-04-06T13:47:04.939Z,11.10
2019-04-06T13:49:38.094Z,11.57
2019-04-06T13:52:11.143Z,13.38
2019-04-06T13:54:47.060Z,12.85
2019-04-06T13:57:19.525Z,13.35
2019-04-06T13:59:49.866Z,14.18
2019-04-06T14:02:26.227Z,12.50
2019-04-06T14:05:13.043Z,14.53
2019-04-06T14:07:49.010Z,13.25
2019-04-06T14:10:21.757Z,12.88
2019-04-06T14:12:51.715Z,12.25
2019-04-06T14:15:38.289Z,13.18
2019-04-06T14:18:11.177Z,12.63
2019-04-06T14:20:46.971Z,12.98
2019-04-06T14:23:20.149Z,12.85
2019-04-06T14:25:53.776Z,12.90
2019-04-06T14:28:40.772Z,13.40
2019-04-06T14:31:29.524Z,16.93
2019-04-06T14:34:01.598Z,17.57
2019-04-06T14:36:31.684Z,20.00
2019-04-06T14:39:18.015Z,18.90
2019-04-06T14:42:03.157Z,18.82
2019-04-06T14:44:33.226Z,19.62
2019-04-06T14:47:06.233Z,18.10
2019-04-06T14:49:39.130Z,14.87
2019-04-06T14:52:25.719Z,16.75
2019-04-06T14:55:11.137Z,16.40
2019-04-06T14:57:41.156Z,17.07
2019-04-06T15:00:23.515Z,17.65
2019-04-06T15:02:59.612Z,17.15
2019-04-06T15:05:42.100Z,17.95
2019-04-06T15:08:18.029Z,17.67
2019-04-06T15:10:51.064Z,19.60
2019-04-06T15:13:30.288Z,17.35
2019-04-06T15:16:10.025Z,18.57
2019-04-06T15:18:56.886Z,19.48
2019-04-06T15:21:33.333Z,18.65
2019-04-06T15:26:50.915Z,18.70
2019-04-06T15:29:24.057Z,20.43
2019-04-06T15:32:03.419Z,20.27
2019-04-06T15:34:33.710Z,17.85
2019-04-06T15:37:06.373Z,17.92
2019-04-06T15:39:42.371Z,18.27
2019-04-06T15:42:12.482Z,20.48
2019-04-06T15:44:58.981Z,18.85
2019-04-06T15:47:35.304Z,20.72
2019-04-06T15:50:06.671Z,20.05
2019-04-06T15:52:42.687Z,19.48
2019-04-06T15:55:18.960Z,21.48
2019-04-06T15:57:49.028Z,20.52
2019-04-06T16:00:22.084Z,19.12
2019-04-06T16:02:52.219Z,18.92
2019-04-06T16:05:31.242Z,19.00
2019-04-06T16:08:04.219Z,19.95
2019-04-06T16:10:49.420Z,19.42
2019-04-06T16:13:19.417Z,20.30
2019-04-06T16:15:52.347Z,20.75
2019-04-06T16:18:28.244Z,22.37
2019-04-06T16:21:16.876Z,21.37
2019-04-06T16:24:01.166Z,21.70
2019-04-06T16:26:30.812Z,21.45
2019-04-06T16:29:01.091Z,20.85
2019-04-06T16:31:34.274Z,24.05
2019-04-06T16:34:19.687Z,21.45
2019-04-06T16:37:07.806Z,23.15
2019-04-06T16:39:47.001Z,21.20
2019-04-06T16:42:23.352Z,22.82
2019-04-06T16:44:53.565Z,21.87
2019-04-06T16:47:26.318Z,21.85
2019-04-06T16:50:02.161Z,22.65
2019-04-06T16:52:41.377Z,23.38
2019-04-06T16:55:12.130Z,23.60
2019-04-06T16:57:54.026Z,22.67
2019-04-06T17:00:24.124Z,22.22
2019-04-06T17:03:10.385Z,25.05
2019-04-06T17:05:57.154Z,25.72
2019-04-06T17:08:27.233Z,26.80
2019-04-06T17:11:15.666Z,24.77
2019-04-06T17:13:45.914Z,27.87
2019-04-06T17:16:22.443Z,27.52
2019-04-06T17:19:01.398Z,27.87
2019-04-06T17:21:40.992Z,25.55
2019-04-06T17:24:14.017Z,25.08
2019-04-06T17:26:53.042Z,25.80
2019-04-06T17:29:23.337Z,24.55
2019-04-06T17:31:56.371Z,25.40
2019-04-06T17:34:29.307Z,23.98
2019-04-06T17:37:05.214Z,24.80
2019-04-06T17:39:53.291Z,24.87
2019-04-06T17:42:26.442Z,24.37
2019-04-06T17:44:56.596Z,20.40
2019-04-06T17:47:40.260Z,24.67
2019-04-06T17:50:16.496Z,20.52
2019-04-06T17:52:48.344Z,22.30
2019-04-06T17:55:36.441Z,20.15
2019-04-06T17:58:09.615Z,24.30
2019-04-06T18:00:42.426Z,22.25
2019-04-06T18:03:18.457Z,20.37
2019-04-06T18:05:51.754Z,20.90
2019-04-06T18:08:27.833Z,22.67
2019-04-06T18:11:14.109Z,20.60
2019-04-06T18:16:21.215Z,21.45
2019-04-06T18:18:49.889Z,20.97
2019-04-06T18:21:18.648Z,21.77
2019-04-06T18:23:47.141Z,19.82
2019-04-06T18:26:15.651Z,22.35
2019-04-06T18:28:44.282Z,21.48
2019-04-06T18:31:30.554Z,23.10
2019-04-06T18:36:43.989Z,22.73
2019-04-06T18:39:15.133Z,22.32
2019-04-06T18:41:43.807Z,22.45
2019-04-06T18:44:12.985Z,24.75
2019-04-06T18:46:42.004Z,23.02
2019-04-06T18:49:10.975Z,24.85
2019-04-06T18:51:39.560Z,25.05
2019-04-06T18:54:09.859Z,23.52
2019-04-06T18:56:40.096Z,23.98
2019-04-06T18:59:09.348Z,25.82
2019-04-06T19:01:39.572Z,26.40
2019-04-06T19:04:08.698Z,24.85
2019-04-06T19:06:37.668Z,22.20
2019-04-06T19:09:19.386Z,24.85
2019-04-06T19:11:39.168Z,23.22
2019-04-06T19:14:08.169Z,24.40
2019-04-06T19:16:37.089Z,25.08
2019-04-06T19:19:06.193Z,26.77
2019-04-06T19:21:35.089Z,25.62
2019-04-06T19:24:04.378Z,26.73
2019-04-06T19:26:37.310Z,25.00
2019-04-06T19:29:05.097Z,24.40
2019-04-06T19:31:33.907Z,25.48
2019-04-06T19:34:02.819Z,27.55
2019-04-06T19:36:31.726Z,27.30
2019-04-06T19:39:00.676Z,23.32
2019-04-06T19:41:29.515Z,26.10
2019-04-06T19:43:58.830Z,28.05
2019-04-06T19:46:28.348Z,28.02
2019-04-06T19:48:58.776Z,25.17
2019-04-06T19:51:27.478Z,28.85
2019-04-06T19:53:56.504Z,26.42
2019-04-06T19:56:25.398Z,25.88
2019-04-06T19:58:54.737Z,32.38
2019-04-06T20:01:24.218Z,27.37
2019-04-06T20:03:53.314Z,28.12
2019-04-06T20:06:22.207Z,28.35
2019-04-06T20:08:51.126Z,26.93
2019-04-06T20:11:20.788Z,27.90
2019-04-06T20:13:49.721Z,25.92
2019-04-06T20:16:18.526Z,27.73
2019-04-06T20:18:48.942Z,27.30
2019-04-06T20:21:17.909Z,27.42
2019-04-06T20:23:46.907Z,28.27
2019-04-06T20:26:15.856Z,29.02
2019-04-06T20:28:44.620Z,30.17
2019-04-06T20:31:13.575Z,28.55
2019-04-06T20:33:50.996Z,29.18
2019-04-06T20:36:13.062Z,26.82
2019-04-06T20:38:42.361Z,27.20
2019-04-06T20:41:10.975Z,26.05
2019-04-06T20:43:39.580Z,28.60
2019-04-06T20:46:08.133Z,29.05
2019-04-06T20:48:36.832Z,27.32
2019-04-06T20:51:05.327Z,27.98
2019-04-06T20:53:34.220Z,29.23
2019-04-06T20:56:02.641Z,29.35
2019-04-06T20:58:31.286Z,29.37
2019-04-06T21:00:59.701Z,27.48
2019-04-06T21:03:28.449Z,27.22
2019-04-06T21:05:57.029Z,28.98
2019-04-06T21:08:25.534Z,27.52
2019-04-06T21:10:53.916Z,29.23
2019-04-06T21:13:22.437Z,28.77
2019-04-06T21:15:51.002Z,30.02
2019-04-06T21:18:19.457Z,30.12
2019-04-06T21:20:48.048Z,28.90
2019-04-06T21:23:17.132Z,24.07
2019-04-06T21:25:46.442Z,28.02
2019-04-06T21:28:16.556Z,30.02
2019-04-06T21:30:45.124Z,28.10
2019-04-06T21:33:13.570Z,29.23
2019-04-06T21:35:42.442Z,29.77
2019-04-06T21:38:10.922Z,25.40
2019-04-06T21:40:39.289Z,28.60
2019-04-06T21:43:07.887Z,28.52
2019-04-06T21:45:36.662Z,29.10
2019-04-06T21:48:05.791Z,26.23
2019-04-06T21:50:35.255Z,27.85
2019-04-06T21:53:03.746Z,26.93
2019-04-06T21:55:32.327Z,27.80
2019-04-06T21:58:00.884Z,25.20
2019-04-06T22:00:47.659Z,25.95
2019-04-06T22:03:16.665Z,26.07
2019-04-06T22:05:45.507Z,25.68
2019-04-06T22:08:14.394Z,25.65
2019-04-06T22:10:43.930Z,26.97
2019-04-06T22:13:13.118Z,25.40
2019-04-06T22:15:41.691Z,26.45
2019-04-06T22:18:10.064Z,25.35
2019-04-06T22:20:38.727Z,26.40
2019-04-06T22:23:07.338Z,26.20
2019-04-06T22:25:35.756Z,26.25
2019-04-06T22:28:04.169Z,24.63
2019-04-06T22:30:32.659Z,25.17
2019-04-06T22:33:01.765Z,24.55
2019-04-06T22:35:30.482Z,24.40
2019-04-06T22:37:58.917Z,23.57
2019-04-06T22:40:27.399Z,24.77
2019-04-06T22:42:56.092Z,24.92
2019-04-06T22:45:26.600Z,22.17
2019-04-06T22:47:55.765Z,24.30
2019-04-06T22:50:24.334Z,22.80
2019-04-06T22:52:52.763Z,22.02
2019-04-06T22:55:21.145Z,23.77
2019-04-06T22:57:50.518Z,24.05
2019-04-06T23:00:27.138Z,25.25
2019-04-06T23:05:47.959Z,23.70
2019-04-06T23:08:16.807Z,22.67
2019-04-06T23:10:45.464Z,22.42
2019-04-06T23:13:14.958Z,23.65
2019-04-06T23:15:43.967Z,23.15
2019-04-06T23:18:12.566Z,22.07
2019-04-06T23:20:41.469Z,22.55
2019-04-06T23:23:10.003Z,21.97
2019-04-06T23:25:38.560Z,23.27
2019-04-06T23:28:07.088Z,23.55
2019-04-06T23:30:35.489Z,23.25
2019-04-06T23:33:03.950Z,24.50
2019-04-06T23:35:32.445Z,24.57
2019-04-06T23:38:00.887Z,21.45
2019-04-06T23:40:29.491Z,23.45
2019-04-06T23:42:58.297Z,25.70
2019-04-06T23:45:26.737Z,25.32
2019-04-06T23:47:55.172Z,26.05
2019-04-06T23:50:23.705Z,25.92
2019-04-06T23:52:52.102Z,25.65
2019-04-06T23:55:21.260Z,26.62
2019-04-06T23:57:49.778Z,26.85
